sensor_id;sensor_type;location;lat;lon;timestamp;P1;durP1;ratioP1;P2;durP2;ratioP2
19113;SDS011;9689;51.052;13.772;2023-05-08T00:02:47;9.45;;;5.88;;
19113;SDS011;9689;51.052;13.772;2023-05-08T00:07:49;6.65;;;4.97;;
19113;SDS011;9689;51.052;13.772;2023-05-08T00:12:50;8.50;;;6.00;;
19113;SDS011;9689;51.052;13.772;2023-05-08T00:17:51;11.75;;;5.95;;
19113;SDS011;9689;51.052;13.772;2023-05-08T00:22:53;10.60;;;6.75;;
19113;SDS011;9689;51.052;13.772;2023-05-08T00:27:54;11.82;;;6.10;;
19113;SDS011;9689;51.052;13.772;2023-05-08T00:32:55;8.90;;;6.07;;
19113;SDS011;9689;51.052;13.772;2023-05-08T00:37:57;8.93;;;5.53;;
19113;SDS011;9689;51.052;13.772;2023-05-08T00:42:58;9.02;;;6.03;;
19113;SDS011;9689;51.052;13.772;2023-05-08T00:47:59;15.02;;;6.15;;
19113;SDS011;9689;51.052;13.772;2023-05-08T00:53:02;8.15;;;5.80;;
19113;SDS011;9689;51.052;13.772;2023-05-08T00:58:04;6.85;;;5.35;;
19113;SDS011;9689;51.052;13.772;2023-05-08T01:03:06;9.23;;;6.25;;
19113;SDS011;9689;51.052;13.772;2023-05-08T01:08:09;10.65;;;6.78;;
19113;SDS011;9689;51.052;13.772;2023-05-08T01:13:13;12.30;;;7.13;;
19113;SDS011;9689;51.052;13.772;2023-05-08T01:18:21;10.48;;;6.32;;
19113;SDS011;9689;51.052;13.772;2023-05-08T01:23:40;14.23;;;6.65;;
19113;SDS011;9689;51.052;13.772;2023-05-08T01:29:02;9.90;;;6.53;;
19113;SDS011;9689;51.052;13.772;2023-05-08T01:34:31;9.55;;;7.07;;
19113;SDS011;9689;51.052;13.772;2023-05-08T01:39:33;11.27;;;7.05;;
19113;SDS011;9689;51.052;13.772;2023-05-08T01:44:43;10.15;;;6.72;;
19113;SDS011;9689;51.052;13.772;2023-05-08T01:49:53;10.65;;;6.97;;
19113;SDS011;9689;51.052;13.772;2023-05-08T01:54:58;9.57;;;6.78;;
19113;SDS011;9689;51.052;13.772;2023-05-08T02:00:03;11.68;;;7.05;;
19113;SDS011;9689;51.052;13.772;2023-05-08T02:05:10;11.55;;;7.20;;
19113;SDS011;9689;51.052;13.772;2023-05-08T02:10:13;12.32;;;7.90;;
19113;SDS011;9689;51.052;13.772;2023-05-08T02:15:17;11.40;;;7.03;;
19113;SDS011;9689;51.052;13.772;2023-05-08T02:20:21;15.10;;;7.63;;
19113;SDS011;9689;51.052;13.772;2023-05-08T02:25:22;12.45;;;7.05;;
19113;SDS011;9689;51.052;13.772;2023-05-08T02:30:25;12.48;;;7.97;;
19113;SDS011;9689;51.052;13.772;2023-05-08T02:35:28;12.77;;;7.32;;
19113;SDS011;9689;51.052;13.772;2023-05-08T02:40:30;11.63;;;7.50;;
19113;SDS011;9689;51.052;13.772;2023-05-08T02:45:35;10.38;;;7.38;;
19113;SDS011;9689;51.052;13.772;2023-05-08T02:50:42;10.18;;;7.22;;
19113;SDS011;9689;51.052;13.772;2023-05-08T02:55:48;14.38;;;7.68;;
19113;SDS011;9689;51.052;13.772;2023-05-08T03:00:55;12.38;;;7.85;;
19113;SDS011;9689;51.052;13.772;2023-05-08T03:06:01;12.30;;;7.82;;
19113;SDS011;9689;51.052;13.772;2023-05-08T03:11:10;11.82;;;7.78;;
19113;SDS011;9689;51.052;13.772;2023-05-08T03:16:16;14.88;;;8.25;;
19113;SDS011;9689;51.052;13.772;2023-05-08T03:21:23;13.80;;;8.90;;
19113;SDS011;9689;51.052;13.772;2023-05-08T03:26:27;13.30;;;8.48;;
19113;SDS011;9689;51.052;13.772;2023-05-08T03:31:28;12.68;;;8.35;;
19113;SDS011;9689;51.052;13.772;2023-05-08T03:36:34;16.15;;;8.63;;
19113;SDS011;9689;51.052;13.772;2023-05-08T03:41:35;15.10;;;8.73;;
19113;SDS011;9689;51.052;13.772;2023-05-08T03:46:36;13.82;;;9.52;;
19113;SDS011;9689;51.052;13.772;2023-05-08T03:51:39;19.20;;;8.88;;
19113;SDS011;9689;51.052;13.772;2023-05-08T03:56:41;12.02;;;7.75;;
19113;SDS011;9689;51.052;13.772;2023-05-08T04:01:47;14.15;;;9.30;;
19113;SDS011;9689;51.052;13.772;2023-05-08T04:06:55;12.40;;;8.90;;
19113;SDS011;9689;51.052;13.772;2023-05-08T04:12:12;14.75;;;9.90;;
19113;SDS011;9689;51.052;13.772;2023-05-08T04:17:21;17.15;;;9.90;;
19113;SDS011;9689;51.052;13.772;2023-05-08T04:22:29;16.27;;;9.43;;
19113;SDS011;9689;51.052;13.772;2023-05-08T04:27:32;14.60;;;8.93;;
19113;SDS011;9689;51.052;13.772;2023-05-08T04:32:35;17.40;;;8.80;;
19113;SDS011;9689;51.052;13.772;2023-05-08T04:37:41;11.95;;;7.72;;
19113;SDS011;9689;51.052;13.772;2023-05-08T04:42:42;10.63;;;7.32;;
19113;SDS011;9689;51.052;13.772;2023-05-08T04:47:47;10.98;;;7.45;;
19113;SDS011;9689;51.052;13.772;2023-05-08T04:52:50;12.05;;;7.57;;
19113;SDS011;9689;51.052;13.772;2023-05-08T04:57:51;10.23;;;7.20;;
19113;SDS011;9689;51.052;13.772;2023-05-08T05:02:52;9.35;;;6.55;;
19113;SDS011;9689;51.052;13.772;2023-05-08T05:07:54;8.43;;;5.90;;
19113;SDS011;9689;51.052;13.772;2023-05-08T05:12:56;9.32;;;6.25;;
19113;SDS011;9689;51.052;13.772;2023-05-08T05:17:57;9.95;;;4.97;;
19113;SDS011;9689;51.052;13.772;2023-05-08T05:22:59;7.60;;;4.90;;
19113;SDS011;9689;51.052;13.772;2023-05-08T05:28:00;7.55;;;4.75;;
19113;SDS011;9689;51.052;13.772;2023-05-08T05:33:01;7.22;;;4.25;;
19113;SDS011;9689;51.052;13.772;2023-05-08T05:38:04;6.72;;;4.53;;
19113;SDS011;9689;51.052;13.772;2023-05-08T05:43:05;6.15;;;3.60;;
19113;SDS011;9689;51.052;13.772;2023-05-08T05:48:06;5.55;;;3.38;;
19113;SDS011;9689;51.052;13.772;2023-05-08T05:53:08;6.13;;;3.33;;
19113;SDS011;9689;51.052;13.772;2023-05-08T05:58:09;4.78;;;3.45;;
19113;SDS011;9689;51.052;13.772;2023-05-08T06:03:10;5.20;;;3.30;;
19113;SDS011;9689;51.052;13.772;2023-05-08T06:08:12;9.73;;;3.72;;
19113;SDS011;9689;51.052;13.772;2023-05-08T06:13:14;5.40;;;3.42;;
19113;SDS011;9689;51.052;13.772;2023-05-08T06:18:15;5.38;;;3.22;;
19113;SDS011;9689;51.052;13.772;2023-05-08T06:23:18;4.43;;;3.00;;
19113;SDS011;9689;51.052;13.772;2023-05-08T06:28:18;4.60;;;3.08;;
19113;SDS011;9689;51.052;13.772;2023-05-08T06:33:20;6.85;;;3.00;;
19113;SDS011;9689;51.052;13.772;2023-05-08T06:38:26;6.18;;;3.13;;
19113;SDS011;9689;51.052;13.772;2023-05-08T06:43:26;5.30;;;3.10;;
19113;SDS011;9689;51.052;13.772;2023-05-08T06:48:28;8.18;;;2.92;;
19113;SDS011;9689;51.052;13.772;2023-05-08T06:53:30;5.68;;;2.95;;
19113;SDS011;9689;51.052;13.772;2023-05-08T06:58:31;4.63;;;2.60;;
19113;SDS011;9689;51.052;13.772;2023-05-08T07:03:32;5.22;;;2.80;;
19113;SDS011;9689;51.052;13.772;2023-05-08T07:08:34;4.95;;;3.00;;
19113;SDS011;9689;51.052;13.772;2023-05-08T07:13:35;4.88;;;2.70;;
19113;SDS011;9689;51.052;13.772;2023-05-08T07:18:36;3.58;;;2.45;;
19113;SDS011;9689;51.052;13.772;2023-05-08T07:23:41;3.55;;;2.45;;
19113;SDS011;9689;51.052;13.772;2023-05-08T07:28:41;3.80;;;2.60;;
19113;SDS011;9689;51.052;13.772;2023-05-08T07:33:42;4.20;;;2.67;;
19113;SDS011;9689;51.052;13.772;2023-05-08T07:38:44;4.47;;;2.38;;
19113;SDS011;9689;51.052;13.772;2023-05-08T07:43:45;4.13;;;2.70;;
19113;SDS011;9689;51.052;13.772;2023-05-08T07:48:46;2.53;;;2.00;;
19113;SDS011;9689;51.052;13.772;2023-05-08T07:53:48;2.30;;;1.98;;
19113;SDS011;9689;51.052;13.772;2023-05-08T07:58:49;3.28;;;1.50;;
19113;SDS011;9689;51.052;13.772;2023-05-08T08:03:50;3.15;;;2.00;;
19113;SDS011;9689;51.052;13.772;2023-05-08T08:08:54;4.60;;;1.65;;
19113;SDS011;9689;51.052;13.772;2023-05-08T08:13:54;2.67;;;1.70;;
19113;SDS011;9689;51.052;13.772;2023-05-08T08:18:55;3.58;;;1.65;;
19113;SDS011;9689;51.052;13.772;2023-05-08T08:23:57;2.10;;;1.30;;
19113;SDS011;9689;51.052;13.772;2023-05-08T08:28:58;1.90;;;1.30;;
19113;SDS011;9689;51.052;13.772;2023-05-08T08:33:59;2.83;;;1.40;;
19113;SDS011;9689;51.052;13.772;2023-05-08T08:39:01;1.58;;;1.40;;
19113;SDS011;9689;51.052;13.772;2023-05-08T08:44:02;1.77;;;1.20;;
19113;SDS011;9689;51.052;13.772;2023-05-08T08:49:03;2.53;;;1.45;;
19113;SDS011;9689;51.052;13.772;2023-05-08T08:54:09;1.55;;;1.10;;
19113;SDS011;9689;51.052;13.772;2023-05-08T08:59:11;2.25;;;1.48;;
19113;SDS011;9689;51.052;13.772;2023-05-08T09:04:12;1.95;;;1.15;;
19113;SDS011;9689;51.052;13.772;2023-05-08T09:09:15;2.22;;;1.20;;
19113;SDS011;9689;51.052;13.772;2023-05-08T09:14:15;2.42;;;1.23;;
19113;SDS011;9689;51.052;13.772;2023-05-08T09:19:16;1.25;;;1.10;;
19113;SDS011;9689;51.052;13.772;2023-05-08T09:24:25;2.22;;;1.27;;
19113;SDS011;9689;51.052;13.772;2023-05-08T09:29:29;2.03;;;1.20;;
19113;SDS011;9689;51.052;13.772;2023-05-08T09:34:30;1.80;;;1.23;;
19113;SDS011;9689;51.052;13.772;2023-05-08T09:39:33;2.03;;;1.40;;
19113;SDS011;9689;51.052;13.772;2023-05-08T09:44:43;1.92;;;1.00;;
19113;SDS011;9689;51.052;13.772;2023-05-08T09:49:57;2.22;;;1.38;;
19113;SDS011;9689;51.052;13.772;2023-05-08T09:55:01;1.20;;;0.93;;
19113;SDS011;9689;51.052;13.772;2023-05-08T10:00:03;2.60;;;1.55;;
19113;SDS011;9689;51.052;13.772;2023-05-08T10:05:21;4.03;;;1.23;;
19113;SDS011;9689;51.052;13.772;2023-05-08T10:10:25;1.75;;;1.10;;
19113;SDS011;9689;51.052;13.772;2023-05-08T10:15:27;2.40;;;1.30;;
19113;SDS011;9689;51.052;13.772;2023-05-08T10:20:30;2.25;;;1.27;;
19113;SDS011;9689;51.052;13.772;2023-05-08T10:25:33;2.53;;;1.63;;
19113;SDS011;9689;51.052;13.772;2023-05-08T10:30:37;2.17;;;1.50;;
19113;SDS011;9689;51.052;13.772;2023-05-08T10:35:42;1.70;;;1.30;;
19113;SDS011;9689;51.052;13.772;2023-05-08T10:40:48;3.10;;;1.70;;
19113;SDS011;9689;51.052;13.772;2023-05-08T10:45:51;2.22;;;1.40;;
19113;SDS011;9689;51.052;13.772;2023-05-08T10:50:57;1.90;;;1.30;;
19113;SDS011;9689;51.052;13.772;2023-05-08T10:56:04;3.10;;;1.23;;
19113;SDS011;9689;51.052;13.772;2023-05-08T11:06:41;2.05;;;1.52;;
19113;SDS011;9689;51.052;13.772;2023-05-08T11:11:48;2.13;;;1.50;;
19113;SDS011;9689;51.052;13.772;2023-05-08T11:17:06;3.58;;;1.08;;
19113;SDS011;9689;51.052;13.772;2023-05-08T11:22:18;3.25;;;1.60;;
19113;SDS011;9689;51.052;13.772;2023-05-08T11:27:39;6.05;;;1.40;;
19113;SDS011;9689;51.052;13.772;2023-05-08T11:32:58;2.03;;;1.00;;
19113;SDS011;9689;51.052;13.772;2023-05-08T11:38:16;3.22;;;1.50;;
19113;SDS011;9689;51.052;13.772;2023-05-08T11:43:20;2.85;;;1.05;;
19113;SDS011;9689;51.052;13.772;2023-05-08T11:48:25;2.05;;;1.65;;
19113;SDS011;9689;51.052;13.772;2023-05-08T11:53:26;3.08;;;1.33;;
19113;SDS011;9689;51.052;13.772;2023-05-08T11:58:28;2.03;;;1.20;;
19113;SDS011;9689;51.052;13.772;2023-05-08T12:03:30;1.95;;;1.70;;
19113;SDS011;9689;51.052;13.772;2023-05-08T12:08:31;3.13;;;1.60;;
19113;SDS011;9689;51.052;13.772;2023-05-08T12:13:33;2.28;;;1.48;;
19113;SDS011;9689;51.052;13.772;2023-05-08T12:18:34;2.33;;;1.30;;
19113;SDS011;9689;51.052;13.772;2023-05-08T12:23:38;3.13;;;1.85;;
19113;SDS011;9689;51.052;13.772;2023-05-08T12:28:42;2.85;;;1.20;;
19113;SDS011;9689;51.052;13.772;2023-05-08T12:33:43;3.95;;;2.15;;
19113;SDS011;9689;51.052;13.772;2023-05-08T12:38:44;2.30;;;1.75;;
19113;SDS011;9689;51.052;13.772;2023-05-08T12:43:46;3.63;;;1.40;;
19113;SDS011;9689;51.052;13.772;2023-05-08T12:48:48;1.85;;;1.15;;
19113;SDS011;9689;51.052;13.772;2023-05-08T12:53:48;1.48;;;0.80;;
19113;SDS011;9689;51.052;13.772;2023-05-08T12:58:51;3.03;;;0.90;;
19113;SDS011;9689;51.052;13.772;2023-05-08T13:03:52;3.78;;;1.67;;
19113;SDS011;9689;51.052;13.772;2023-05-08T13:09:00;1.80;;;0.98;;
19113;SDS011;9689;51.052;13.772;2023-05-08T13:14:02;1.75;;;1.17;;
19113;SDS011;9689;51.052;13.772;2023-05-08T13:19:03;4.60;;;1.63;;
19113;SDS011;9689;51.052;13.772;2023-05-08T13:24:04;4.68;;;1.38;;
19113;SDS011;9689;51.052;13.772;2023-05-08T13:29:06;4.40;;;1.75;;
19113;SDS011;9689;51.052;13.772;2023-05-08T13:34:07;3.63;;;1.80;;
19113;SDS011;9689;51.052;13.772;2023-05-08T13:39:08;3.55;;;1.60;;
19113;SDS011;9689;51.052;13.772;2023-05-08T13:44:10;5.85;;;1.38;;
19113;SDS011;9689;51.052;13.772;2023-05-08T13:49:11;4.50;;;1.80;;
19113;SDS011;9689;51.052;13.772;2023-05-08T13:54:12;7.10;;;1.52;;
19113;SDS011;9689;51.052;13.772;2023-05-08T13:59:14;6.55;;;1.63;;
19113;SDS011;9689;51.052;13.772;2023-05-08T14:04:14;3.28;;;1.70;;
19113;SDS011;9689;51.052;13.772;2023-05-08T14:09:15;8.15;;;2.28;;
19113;SDS011;9689;51.052;13.772;2023-05-08T14:14:17;10.35;;;1.80;;
19113;SDS011;9689;51.052;13.772;2023-05-08T14:19:18;2.67;;;1.45;;
19113;SDS011;9689;51.052;13.772;2023-05-08T14:24:19;2.95;;;1.35;;
19113;SDS011;9689;51.052;13.772;2023-05-08T14:29:21;3.60;;;1.83;;
19113;SDS011;9689;51.052;13.772;2023-05-08T14:34:22;4.45;;;1.80;;
19113;SDS011;9689;51.052;13.772;2023-05-08T14:39:22;3.40;;;1.67;;
19113;SDS011;9689;51.052;13.772;2023-05-08T14:44:24;6.60;;;1.73;;
19113;SDS011;9689;51.052;13.772;2023-05-08T14:49:25;3.00;;;1.80;;
19113;SDS011;9689;51.052;13.772;2023-05-08T14:54:36;5.15;;;2.25;;
19113;SDS011;9689;51.052;13.772;2023-05-08T14:59:38;3.72;;;1.63;;
19113;SDS011;9689;51.052;13.772;2023-05-08T15:04:52;5.22;;;1.90;;
19113;SDS011;9689;51.052;13.772;2023-05-08T15:09:53;9.45;;;2.65;;
19113;SDS011;9689;51.052;13.772;2023-05-08T15:14:55;7.88;;;2.08;;
19113;SDS011;9689;51.052;13.772;2023-05-08T15:19:56;9.07;;;2.05;;
19113;SDS011;9689;51.052;13.772;2023-05-08T15:24:56;3.83;;;1.90;;
19113;SDS011;9689;51.052;13.772;2023-05-08T15:30:02;3.08;;;1.75;;
19113;SDS011;9689;51.052;13.772;2023-05-08T15:35:03;5.18;;;1.75;;
19113;SDS011;9689;51.052;13.772;2023-05-08T15:40:06;11.52;;;2.03;;
19113;SDS011;9689;51.052;13.772;2023-05-08T15:45:09;5.00;;;1.70;;
19113;SDS011;9689;51.052;13.772;2023-05-08T15:50:11;4.30;;;1.95;;
19113;SDS011;9689;51.052;13.772;2023-05-08T15:55:12;5.57;;;1.70;;
19113;SDS011;9689;51.052;13.772;2023-05-08T16:00:15;7.18;;;2.20;;
19113;SDS011;9689;51.052;13.772;2023-05-08T16:05:17;5.50;;;1.85;;
19113;SDS011;9689;51.052;13.772;2023-05-08T16:10:18;5.40;;;1.98;;
19113;SDS011;9689;51.052;13.772;2023-05-08T16:15:20;6.40;;;2.20;;
19113;SDS011;9689;51.052;13.772;2023-05-08T16:20:21;6.13;;;1.98;;
19113;SDS011;9689;51.052;13.772;2023-05-08T16:25:22;3.65;;;1.90;;
19113;SDS011;9689;51.052;13.772;2023-05-08T16:30:24;2.70;;;1.83;;
19113;SDS011;9689;51.052;13.772;2023-05-08T16:35:25;6.68;;;1.88;;
19113;SDS011;9689;51.052;13.772;2023-05-08T16:40:27;3.22;;;1.83;;
19113;SDS011;9689;51.052;13.772;2023-05-08T16:45:29;6.53;;;2.28;;
19113;SDS011;9689;51.052;13.772;2023-05-08T16:50:32;6.13;;;1.98;;
19113;SDS011;9689;51.052;13.772;2023-05-08T16:55:33;2.95;;;1.88;;
19113;SDS011;9689;51.052;13.772;2023-05-08T17:00:35;5.00;;;2.30;;
19113;SDS011;9689;51.052;13.772;2023-05-08T17:05:36;3.10;;;1.80;;
19113;SDS011;9689;51.052;13.772;2023-05-08T17:10:37;4.55;;;1.95;;
19113;SDS011;9689;51.052;13.772;2023-05-08T17:15:40;3.13;;;1.77;;
19113;SDS011;9689;51.052;13.772;2023-05-08T17:20:41;6.38;;;2.47;;
19113;SDS011;9689;51.052;13.772;2023-05-08T17:25:42;3.60;;;1.85;;
19113;SDS011;9689;51.052;13.772;2023-05-08T17:30:44;6.43;;;2.03;;
19113;SDS011;9689;51.052;13.772;2023-05-08T17:35:46;7.43;;;2.58;;
19113;SDS011;9689;51.052;13.772;2023-05-08T17:40:47;5.45;;;1.70;;
19113;SDS011;9689;51.052;13.772;2023-05-08T17:45:49;5.00;;;2.28;;
19113;SDS011;9689;51.052;13.772;2023-05-08T17:50:49;9.35;;;2.60;;
19113;SDS011;9689;51.052;13.772;2023-05-08T17:55:50;6.65;;;3.17;;
19113;SDS011;9689;51.052;13.772;2023-05-08T18:00:53;4.03;;;2.42;;
19113;SDS011;9689;51.052;13.772;2023-05-08T18:05:55;8.05;;;4.65;;
19113;SDS011;9689;51.052;13.772;2023-05-08T18:10:56;7.13;;;3.15;;
19113;SDS011;9689;51.052;13.772;2023-05-08T18:15:58;8.27;;;3.33;;
19113;SDS011;9689;51.052;13.772;2023-05-08T18:20:58;4.90;;;2.65;;
19113;SDS011;9689;51.052;13.772;2023-05-08T18:25:59;5.13;;;3.28;;
19113;SDS011;9689;51.052;13.772;2023-05-08T18:31:01;4.60;;;3.05;;
19113;SDS011;9689;51.052;13.772;2023-05-08T18:36:03;6.93;;;3.17;;
19113;SDS011;9689;51.052;13.772;2023-05-08T18:41:09;5.10;;;3.17;;
19113;SDS011;9689;51.052;13.772;2023-05-08T18:46:11;10.65;;;3.38;;
19113;SDS011;9689;51.052;13.772;2023-05-08T18:51:13;9.23;;;3.20;;
19113;SDS011;9689;51.052;13.772;2023-05-08T18:56:13;5.07;;;3.20;;
19113;SDS011;9689;51.052;13.772;2023-05-08T19:01:15;8.27;;;3.70;;
19113;SDS011;9689;51.052;13.772;2023-05-08T19:06:18;7.43;;;3.65;;
19113;SDS011;9689;51.052;13.772;2023-05-08T19:11:19;4.18;;;2.92;;
19113;SDS011;9689;51.052;13.772;2023-05-08T19:16:21;3.85;;;2.90;;
19113;SDS011;9689;51.052;13.772;2023-05-08T19:21:22;9.07;;;4.22;;
19113;SDS011;9689;51.052;13.772;2023-05-08T19:26:23;9.68;;;3.72;;
19113;SDS011;9689;51.052;13.772;2023-05-08T19:31:26;8.20;;;3.65;;
19113;SDS011;9689;51.052;13.772;2023-05-08T19:36:26;7.80;;;4.03;;
19113;SDS011;9689;51.052;13.772;2023-05-08T19:41:27;13.45;;;3.88;;
19113;SDS011;9689;51.052;13.772;2023-05-08T19:46:29;7.82;;;4.18;;
19113;SDS011;9689;51.052;13.772;2023-05-08T19:51:30;11.95;;;3.65;;
19113;SDS011;9689;51.052;13.772;2023-05-08T19:56:30;7.85;;;3.88;;
19113;SDS011;9689;51.052;13.772;2023-05-08T20:01:32;5.45;;;3.60;;
19113;SDS011;9689;51.052;13.772;2023-05-08T20:06:33;7.93;;;4.47;;
19113;SDS011;9689;51.052;13.772;2023-05-08T20:11:36;6.43;;;3.92;;
19113;SDS011;9689;51.052;13.772;2023-05-08T20:16:38;8.00;;;4.07;;
19113;SDS011;9689;51.052;13.772;2023-05-08T20:21:40;12.40;;;4.75;;
19113;SDS011;9689;51.052;13.772;2023-05-08T20:26:40;6.47;;;4.32;;
19113;SDS011;9689;51.052;13.772;2023-05-08T20:31:42;8.10;;;4.03;;
19113;SDS011;9689;51.052;13.772;2023-05-08T20:36:43;9.88;;;4.47;;
19113;SDS011;9689;51.052;13.772;2023-05-08T20:41:44;6.30;;;4.40;;
19113;SDS011;9689;51.052;13.772;2023-05-08T20:46:46;9.18;;;4.20;;
19113;SDS011;9689;51.052;13.772;2023-05-08T20:51:47;9.05;;;4.50;;
19113;SDS011;9689;51.052;13.772;2023-05-08T20:56:47;11.35;;;4.45;;
19113;SDS011;9689;51.052;13.772;2023-05-08T21:01:49;7.47;;;4.53;;
19113;SDS011;9689;51.052;13.772;2023-05-08T21:06:50;10.90;;;4.50;;
19113;SDS011;9689;51.052;13.772;2023-05-08T21:11:51;6.68;;;4.15;;
19113;SDS011;9689;51.052;13.772;2023-05-08T21:16:53;7.30;;;3.97;;
19113;SDS011;9689;51.052;13.772;2023-05-08T21:21:54;8.00;;;4.80;;
19113;SDS011;9689;51.052;13.772;2023-05-08T21:26:54;13.25;;;4.45;;
19113;SDS011;9689;51.052;13.772;2023-05-08T21:31:59;7.70;;;3.70;;
19113;SDS011;9689;51.052;13.772;2023-05-08T21:36:59;6.32;;;3.50;;
19113;SDS011;9689;51.052;13.772;2023-05-08T21:42:00;7.20;;;3.60;;
19113;SDS011;9689;51.052;13.772;2023-05-08T21:47:02;6.22;;;3.55;;
19113;SDS011;9689;51.052;13.772;2023-05-08T21:52:03;13.30;;;4.63;;
19113;SDS011;9689;51.052;13.772;2023-05-08T21:57:04;5.82;;;3.38;;
19113;SDS011;9689;51.052;13.772;2023-05-08T22:02:07;9.00;;;3.90;;
19113;SDS011;9689;51.052;13.772;2023-05-08T22:07:08;8.73;;;3.95;;
19113;SDS011;9689;51.052;13.772;2023-05-08T22:12:08;7.88;;;3.92;;
19113;SDS011;9689;51.052;13.772;2023-05-08T22:17:10;10.05;;;3.53;;
19113;SDS011;9689;51.052;13.772;2023-05-08T22:22:11;10.38;;;4.45;;
19113;SDS011;9689;51.052;13.772;2023-05-08T22:27:12;7.53;;;4.40;;
19113;SDS011;9689;51.052;13.772;2023-05-08T22:32:14;9.57;;;4.05;;
19113;SDS011;9689;51.052;13.772;2023-05-08T22:37:16;6.28;;;3.83;;
19113;SDS011;9689;51.052;13.772;2023-05-08T22:42:17;9.30;;;3.63;;
19113;SDS011;9689;51.052;13.772;2023-05-08T22:47:19;6.10;;;3.05;;
19113;SDS011;9689;51.052;13.772;2023-05-08T22:52:20;6.07;;;3.20;;
19113;SDS011;9689;51.052;13.772;2023-05-08T22:57:20;6.05;;;3.45;;
19113;SDS011;9689;51.052;13.772;2023-05-08T23:02:22;7.80;;;3.20;;
19113;SDS011;9689;51.052;13.772;2023-05-08T23:07:23;9.82;;;3.03;;
19113;SDS011;9689;51.052;13.772;2023-05-08T23:12:24;5.38;;;3.22;;
19113;SDS011;9689;51.052;13.772;2023-05-08T23:17:26;8.18;;;3.15;;
19113;SDS011;9689;51.052;13.772;2023-05-08T23:22:27;5.03;;;3.38;;
19113;SDS011;9689;51.052;13.772;2023-05-08T23:27:27;4.47;;;2.88;;
19113;SDS011;9689;51.052;13.772;2023-05-08T23:32:30;5.10;;;2.67;;
19113;SDS011;9689;51.052;13.772;2023-05-08T23:37:30;7.90;;;3.03;;
19113;SDS011;9689;51.052;13.772;2023-05-08T23:42:31;7.18;;;3.05;;
19113;SDS011;9689;51.052;13.772;2023-05-08T23:47:33;6.03;;;3.40;;
19113;SDS011;9689;51.052;13.772;2023-05-08T23:52:34;6.28;;;2.95;;
19113;SDS011;9689;51.052;13.772;2023-05-08T23:57:35;6.80;;;3.28;;
